Hovedside
METAR-TAF:

METAR-TAF

Lufthavner :

Norrköping, Sverige

breddegrad: 58-35N, lengdegrad: 016-09E, høyde over havet: 34 m

Gjeldene værobservasjon

Denne rapporten ble laget for 13 minutter siden, klokken 21:50 UTC
Vind 3 kt fra Øst
Temperatur 13°C
Luftfuktighet 100%
Trykk 1008 hPa
Sikt 10 km eller mer
ingen skyer under 1500 m og ingen bygeskyer

METAR: ESSP 182150Z 09003KT CAVOK 13/13 Q1008

Tid: 00:03 (22:03 UTC)

Varsel

Denne rapporten ble laget for 1 time og 33 minutter siden, klokken 20:30 UTC
Varsel gyldig fra 18. klokken 21 UTC til 18. klokken 24 UTC
Vind 5 kt fra Sør-sørvest
Sikt 10 km eller mer
ingen skyer under 1500 m og ingen bygeskyer
Sannsynlighet 40%
fra 18. klokken 23 UTC til 18. klokken 24 UTC
Brutte skyer i en høyde av 3000 ft, Bygeskyer.
regnbyger

TAF: ESSP 182030Z 1821/1824 20005KT CAVOK PROB40 1823/1824 SHRA BKN030CB

Værobservasjoner og værvarsel for over 4000 flyplasser (METAR- og TAF-rapporter).

Tilgjengelige stasjoner er representert av de røde og gule prikkene på kartet.

Hold musepekeren over prikken for å se navnet på stasjonen.

Klikk så for å se værobservasjoner og -varsler.

For å forandre kartet kan du klikke på den grønne knappen med svart kryss for å zoome inn, på den grønne knappen med strek for å zoome ut, eller på de grønne pilene for å se tilstøtende kart.


METAR-TAF: